createdAt,value
2022-12-12T00:01:12.702Z,9.38
2022-12-12T00:04:14.324Z,7.93
2022-12-12T00:07:15.802Z,9.63
2022-12-12T00:10:17.403Z,8.32
2022-12-12T00:13:19.032Z,7.38
2022-12-12T00:16:20.870Z,9.68
2022-12-12T00:19:22.548Z,10.25
2022-12-12T00:22:24.143Z,9.32
2022-12-12T00:25:25.880Z,11.57
2022-12-12T00:28:28.332Z,11.57
2022-12-12T00:31:30.049Z,9.05
2022-12-12T00:34:31.639Z,8.57
2022-12-12T00:37:33.143Z,8.60
2022-12-12T00:40:35.347Z,9.27
2022-12-12T00:43:36.955Z,9.50
2022-12-12T00:46:39.357Z,9.32
2022-12-12T00:49:40.965Z,8.93
2022-12-12T00:52:42.578Z,8.82
2022-12-12T00:55:44.089Z,9.00
2022-12-12T00:58:46.002Z,9.50
2022-12-12T01:01:47.730Z,9.63
2022-12-12T01:04:49.269Z,8.23
2022-12-12T01:07:52.670Z,11.60
2022-12-12T01:10:54.660Z,8.60
2022-12-12T01:13:56.768Z,10.43
2022-12-12T01:16:58.532Z,10.77
2022-12-12T01:20:00.110Z,14.05
2022-12-12T01:23:01.702Z,10.98
2022-12-12T01:26:08.149Z,14.50
2022-12-12T01:29:09.667Z,10.77
2022-12-12T01:32:11.284Z,9.00
2022-12-12T01:35:12.954Z,14.35
2022-12-12T01:38:14.603Z,13.07
2022-12-12T01:41:17.194Z,11.93
2022-12-12T01:44:40.303Z,12.90
2022-12-12T01:47:41.806Z,12.10
2022-12-12T01:50:44.608Z,10.70
2022-12-12T01:53:49.346Z,10.07
2022-12-12T01:56:53.282Z,9.10
2022-12-12T01:59:55.145Z,9.35
2022-12-12T02:02:57.076Z,9.52
2022-12-12T02:06:02.379Z,7.88
2022-12-12T02:09:08.092Z,10.40
2022-12-12T02:12:14.728Z,9.95
2022-12-12T02:15:18.522Z,11.65
2022-12-12T02:18:37.731Z,9.73
2022-12-12T02:21:55.686Z,8.95
2022-12-12T02:25:25.218Z,10.23
2022-12-12T02:28:41.272Z,7.65
2022-12-12T02:31:58.973Z,7.68
2022-12-12T02:35:03.902Z,8.65
2022-12-12T02:38:19.739Z,7.60
2022-12-12T02:41:26.882Z,7.60
2022-12-12T02:44:35.849Z,9.23
2022-12-12T02:47:43.283Z,6.72
2022-12-12T02:50:48.112Z,7.82
2022-12-12T02:53:49.653Z,9.07
2022-12-12T02:56:52.867Z,9.10
2022-12-12T03:00:01.709Z,6.80
2022-12-12T03:03:43.767Z,8.63
2022-12-12T03:07:22.277Z,8.65
2022-12-12T03:11:00.008Z,8.27
2022-12-12T03:14:14.769Z,5.78
2022-12-12T03:17:28.603Z,7.63
2022-12-12T03:20:40.686Z,7.68
2022-12-12T03:23:47.901Z,7.13
2022-12-12T03:26:54.614Z,7.20
2022-12-12T03:30:02.479Z,6.70
2022-12-12T03:33:11.775Z,7.70
2022-12-12T03:36:27.556Z,8.05
2022-12-12T03:40:01.466Z,5.53
2022-12-12T03:43:09.662Z,7.28
2022-12-12T03:46:19.654Z,6.32
2022-12-12T03:49:26.274Z,5.85
2022-12-12T03:52:35.016Z,6.28
2022-12-12T03:55:43.785Z,7.07
2022-12-12T03:59:02.544Z,7.95
2022-12-12T04:02:12.917Z,5.93
2022-12-12T04:05:18.502Z,8.63
2022-12-12T04:08:20.819Z,7.00
2022-12-12T04:11:40.996Z,6.95
2022-12-12T04:14:51.708Z,7.20
2022-12-12T04:18:17.323Z,8.35
2022-12-12T04:21:49.538Z,8.80
2022-12-12T04:25:16.202Z,7.70
2022-12-12T04:28:18.663Z,9.23
2022-12-12T04:31:25.365Z,7.68
2022-12-12T04:35:05.187Z,8.95
2022-12-12T04:38:13.504Z,7.35
2022-12-12T04:41:18.091Z,8.82
2022-12-12T04:44:23.144Z,8.35
2022-12-12T04:47:29.243Z,9.32
2022-12-12T04:50:32.854Z,7.82
2022-12-12T04:53:39.561Z,8.70
2022-12-12T04:56:44.381Z,6.05
2022-12-12T04:59:46.221Z,7.72
2022-12-12T05:02:57.806Z,8.43
2022-12-12T05:06:08.856Z,8.25
2022-12-12T05:09:11.840Z,10.63
2022-12-12T05:12:16.000Z,6.90
2022-12-12T05:15:19.556Z,9.60
2022-12-12T05:18:22.502Z,9.95
2022-12-12T05:21:24.068Z,8.73
2022-12-12T05:24:30.752Z,8.65
2022-12-12T05:27:32.275Z,9.93
2022-12-12T05:30:33.971Z,10.77
2022-12-12T05:33:35.470Z,11.35
2022-12-12T05:36:36.978Z,10.73
2022-12-12T05:39:38.564Z,14.75
2022-12-12T05:42:40.673Z,10.48
2022-12-12T05:45:42.373Z,11.88
2022-12-12T05:48:51.719Z,9.40
2022-12-12T05:51:54.733Z,10.80
2022-12-12T05:54:56.270Z,11.38
2022-12-12T05:57:57.930Z,10.63
2022-12-12T06:01:03.212Z,9.55
2022-12-12T06:04:05.555Z,10.02
2022-12-12T06:07:07.180Z,8.98
2022-12-12T06:10:08.893Z,13.15
2022-12-12T06:13:10.474Z,15.52
2022-12-12T06:16:16.057Z,14.65
2022-12-12T06:19:20.935Z,26.65
2022-12-12T06:22:22.668Z,16.88
2022-12-12T06:25:24.599Z,22.75
2022-12-12T06:28:26.136Z,16.83
2022-12-12T06:31:27.652Z,19.15
2022-12-12T06:34:29.194Z,10.98
2022-12-12T06:37:30.758Z,20.75
2022-12-12T06:40:33.135Z,18.55
2022-12-12T06:43:34.723Z,17.55
2022-12-12T06:46:36.579Z,15.77
2022-12-12T06:49:38.379Z,18.90
2022-12-12T06:52:39.934Z,20.15
2022-12-12T06:55:43.302Z,15.20
2022-12-12T06:58:45.034Z,44.38
2022-12-12T07:01:47.017Z,26.40
2022-12-12T07:04:48.629Z,22.58
2022-12-12T07:07:50.274Z,19.48
2022-12-12T07:10:51.976Z,23.83
2022-12-12T07:13:55.759Z,16.90
2022-12-12T07:19:58.927Z,16.00
2022-12-12T07:23:00.495Z,17.48
2022-12-12T07:26:11.431Z,15.43
2022-12-12T07:29:13.031Z,13.07
2022-12-12T07:32:14.532Z,19.38
2022-12-12T07:35:16.267Z,25.33
2022-12-12T07:38:17.804Z,30.85
2022-12-12T07:41:20.828Z,35.22
2022-12-12T07:44:24.421Z,50.60
2022-12-12T07:47:26.007Z,66.40
2022-12-12T07:50:27.550Z,53.03
2022-12-12T07:53:30.031Z,102.45
2022-12-12T07:56:31.544Z,45.42
2022-12-12T07:59:33.046Z,78.47
2022-12-12T08:02:34.799Z,28.67
2022-12-12T08:05:40.682Z,33.70
2022-12-12T08:08:43.588Z,50.15
2022-12-12T08:11:46.699Z,46.22
2022-12-12T08:14:49.017Z,43.42
2022-12-12T08:17:50.676Z,54.05
2022-12-12T08:20:52.240Z,51.63
2022-12-12T08:24:02.332Z,33.42
2022-12-12T08:27:04.060Z,47.97
2022-12-12T08:30:06.293Z,61.05
2022-12-12T08:33:08.425Z,70.55
2022-12-12T08:36:13.979Z,30.92
2022-12-12T08:39:23.156Z,48.70
2022-12-12T08:42:24.716Z,32.40
2022-12-12T08:45:26.255Z,25.83
2022-12-12T08:48:28.288Z,27.67
2022-12-12T08:51:29.871Z,25.85
2022-12-12T08:54:31.706Z,22.98
2022-12-12T08:57:33.615Z,26.95
2022-12-12T09:00:35.608Z,33.38
2022-12-12T09:03:37.223Z,91.47
2022-12-12T09:06:38.825Z,97.97
2022-12-12T09:09:40.367Z,61.13
2022-12-12T09:12:42.331Z,45.58
2022-12-12T09:15:44.103Z,41.15
2022-12-12T09:18:48.938Z,35.28
2022-12-12T09:21:51.151Z,32.85
2022-12-12T09:24:52.798Z,25.85
2022-12-12T09:27:54.483Z,19.92
2022-12-12T09:30:55.998Z,16.63
2022-12-12T09:33:57.468Z,19.13
2022-12-12T09:36:59.083Z,15.15
2022-12-12T09:40:00.578Z,15.77
2022-12-12T09:43:02.777Z,17.85
2022-12-12T09:46:16.383Z,19.65
2022-12-12T09:52:46.421Z,22.38
2022-12-12T09:55:58.277Z,21.13
2022-12-12T09:59:36.793Z,20.98
2022-12-12T10:03:16.909Z,19.40
2022-12-12T10:06:37.854Z,18.90
2022-12-12T10:10:12.688Z,18.15
2022-12-12T10:13:26.713Z,17.20
2022-12-12T10:16:31.660Z,22.30
2022-12-12T10:19:42.492Z,29.67
2022-12-12T10:23:13.151Z,24.38
2022-12-12T10:26:14.664Z,24.63
2022-12-12T10:30:04.085Z,23.08
2022-12-12T10:33:43.626Z,25.25
2022-12-12T10:37:09.920Z,26.85
2022-12-12T10:40:23.747Z,24.83
2022-12-12T10:44:00.567Z,27.02
2022-12-12T10:47:06.494Z,23.33
2022-12-12T10:50:27.309Z,25.48
2022-12-12T10:53:31.211Z,26.50
2022-12-12T10:56:34.224Z,26.38
2022-12-12T10:59:47.447Z,23.90
2022-12-12T11:02:49.092Z,27.45
2022-12-12T11:05:51.070Z,23.98
2022-12-12T11:09:06.178Z,29.70
2022-12-12T11:12:16.729Z,23.48
2022-12-12T11:15:18.403Z,25.58
2022-12-12T11:18:22.706Z,22.00
2022-12-12T11:21:24.547Z,25.23
2022-12-12T11:24:31.471Z,24.83
2022-12-12T11:27:40.769Z,24.20
2022-12-12T11:30:44.136Z,29.92
2022-12-12T11:33:49.190Z,25.33
2022-12-12T11:36:50.774Z,26.85
2022-12-12T11:39:54.615Z,28.38
2022-12-12T11:43:07.848Z,29.88
2022-12-12T11:46:13.711Z,27.23
2022-12-12T11:49:19.509Z,24.33
2022-12-12T11:52:26.950Z,25.15
2022-12-12T11:55:52.203Z,23.50
2022-12-12T11:59:11.477Z,28.35
2022-12-12T12:02:29.386Z,27.40
2022-12-12T12:06:04.680Z,27.08
2022-12-12T12:09:22.311Z,28.92
2022-12-12T12:12:57.838Z,26.50
2022-12-12T12:15:59.315Z,23.92
2022-12-12T12:19:19.210Z,25.17
2022-12-12T12:22:35.659Z,25.42
2022-12-12T12:25:55.961Z,29.38
2022-12-12T12:29:15.696Z,26.58
2022-12-12T12:32:34.426Z,28.15
2022-12-12T12:36:06.767Z,26.63
2022-12-12T12:39:17.188Z,29.30
2022-12-12T12:42:57.572Z,23.48
2022-12-12T12:46:14.622Z,27.35
2022-12-12T12:49:30.957Z,27.20
2022-12-12T12:52:52.272Z,25.02
2022-12-12T12:55:58.783Z,27.48
2022-12-12T12:59:04.387Z,30.83
2022-12-12T13:02:27.386Z,28.73
2022-12-12T13:05:44.159Z,26.70
2022-12-12T13:09:13.892Z,27.77
2022-12-12T13:12:27.458Z,25.25
2022-12-12T13:15:34.641Z,27.67
2022-12-12T13:18:51.901Z,24.42
2022-12-12T13:22:08.496Z,25.77
2022-12-12T13:25:18.926Z,28.40
2022-12-12T13:28:35.418Z,27.27
2022-12-12T13:31:43.260Z,29.27
2022-12-12T13:34:48.255Z,34.28
2022-12-12T13:37:54.064Z,28.08
2022-12-12T13:41:01.601Z,25.35
2022-12-12T13:44:03.184Z,31.88
2022-12-12T13:47:12.234Z,25.55
2022-12-12T13:50:22.632Z,23.45
2022-12-12T13:53:24.242Z,25.95
2022-12-12T13:56:52.491Z,26.90
2022-12-12T13:59:54.156Z,25.77
2022-12-12T14:03:04.744Z,23.83
2022-12-12T14:06:12.312Z,25.23
2022-12-12T14:09:21.527Z,23.70
2022-12-12T14:12:33.510Z,25.13
2022-12-12T14:15:40.141Z,32.08
2022-12-12T14:18:58.968Z,29.35
2022-12-12T14:22:01.155Z,32.70
2022-12-12T14:25:11.716Z,30.00
2022-12-12T14:28:25.809Z,31.38
2022-12-12T14:31:35.080Z,26.00
2022-12-12T14:34:58.304Z,26.85
2022-12-12T14:38:27.769Z,30.50
2022-12-12T14:41:38.500Z,30.95
2022-12-12T14:44:47.845Z,28.25
2022-12-12T14:48:15.535Z,29.60
2022-12-12T14:51:25.848Z,28.92
2022-12-12T14:54:30.934Z,29.88
2022-12-12T14:57:32.752Z,25.30
2022-12-12T15:00:34.347Z,27.58
2022-12-12T15:03:48.303Z,29.92
2022-12-12T15:06:54.545Z,29.00
2022-12-12T15:09:56.482Z,28.80
2022-12-12T15:12:58.165Z,27.60
2022-12-12T15:15:59.862Z,23.85
2022-12-12T15:19:02.391Z,25.27
2022-12-12T15:22:11.399Z,28.85
2022-12-12T15:25:25.148Z,28.02
2022-12-12T15:28:27.342Z,32.03
2022-12-12T15:31:28.929Z,27.83
2022-12-12T15:34:40.336Z,28.42
2022-12-12T15:37:42.099Z,31.90
2022-12-12T15:40:47.714Z,33.92
2022-12-12T15:43:49.392Z,30.45
2022-12-12T15:46:51.260Z,33.42
2022-12-12T15:49:53.622Z,29.85
2022-12-12T15:53:01.745Z,29.13
2022-12-12T15:56:10.355Z,31.35
2022-12-12T15:59:21.389Z,30.25
2022-12-12T16:02:32.218Z,31.48
2022-12-12T16:05:36.890Z,28.50
2022-12-12T16:08:44.665Z,31.73
2022-12-12T16:11:48.487Z,30.08
2022-12-12T16:14:50.064Z,34.38
2022-12-12T16:18:04.759Z,38.22
2022-12-12T16:24:21.725Z,31.52
2022-12-12T16:27:23.276Z,36.45
2022-12-12T16:30:26.520Z,33.30
2022-12-12T16:33:36.146Z,27.33
2022-12-12T16:36:41.850Z,34.90
2022-12-12T16:39:44.375Z,31.85
2022-12-12T16:43:09.421Z,30.52
2022-12-12T16:46:23.378Z,32.67
2022-12-12T16:49:24.977Z,37.25
2022-12-12T16:52:26.731Z,34.90
2022-12-12T16:55:28.636Z,31.50
2022-12-12T16:58:30.189Z,29.75
2022-12-12T17:01:35.944Z,34.83
2022-12-12T17:04:40.187Z,30.80
2022-12-12T17:07:41.860Z,33.03
2022-12-12T17:10:46.053Z,67.88
2022-12-12T17:13:49.219Z,50.33
2022-12-12T17:16:51.675Z,32.78
2022-12-12T17:19:53.196Z,38.58
2022-12-12T17:22:54.828Z,35.88
2022-12-12T17:26:03.103Z,35.13
2022-12-12T17:29:07.565Z,35.90
2022-12-12T17:32:09.113Z,45.85
2022-12-12T17:35:10.684Z,48.50
2022-12-12T17:38:16.185Z,63.70
2022-12-12T17:41:18.074Z,48.10
2022-12-12T17:44:23.733Z,64.20
2022-12-12T17:47:25.749Z,48.40
2022-12-12T17:50:27.284Z,38.30
2022-12-12T17:53:38.231Z,55.88
2022-12-12T17:56:39.863Z,60.47
2022-12-12T17:59:42.524Z,46.55
2022-12-12T18:02:44.424Z,69.07
2022-12-12T18:05:45.983Z,65.40
2022-12-12T18:08:48.976Z,69.68
2022-12-12T18:11:50.500Z,68.10
2022-12-12T18:14:52.127Z,100.93
2022-12-12T18:17:53.682Z,72.72
2022-12-12T18:20:55.275Z,82.68
2022-12-12T18:23:58.350Z,53.35
2022-12-12T18:27:01.232Z,48.33
2022-12-12T18:30:02.748Z,57.17
2022-12-12T18:33:04.262Z,47.90
2022-12-12T18:36:13.302Z,50.15
2022-12-12T18:39:14.987Z,43.75
2022-12-12T18:42:16.826Z,49.08
2022-12-12T18:45:18.334Z,50.33
2022-12-12T18:48:19.918Z,45.88
2022-12-12T18:51:24.526Z,41.13
2022-12-12T18:54:26.127Z,42.08
2022-12-12T18:57:28.015Z,41.15
2022-12-12T19:00:30.109Z,50.15
2022-12-12T19:03:31.678Z,36.72
2022-12-12T19:06:36.007Z,37.05
2022-12-12T19:09:37.568Z,38.03
2022-12-12T19:12:39.108Z,44.20
2022-12-12T19:15:40.677Z,37.80
2022-12-12T19:18:42.919Z,38.63
2022-12-12T19:21:53.586Z,43.00
2022-12-12T19:24:55.166Z,42.22
2022-12-12T19:27:58.131Z,49.13
2022-12-12T19:31:00.354Z,38.47
2022-12-12T19:34:06.638Z,43.75
2022-12-12T19:37:08.221Z,43.67
2022-12-12T19:40:10.764Z,45.72
2022-12-12T19:43:12.462Z,47.85
2022-12-12T19:46:17.046Z,41.72
2022-12-12T19:49:18.691Z,41.47
2022-12-12T19:52:20.283Z,42.00
2022-12-12T19:55:21.933Z,41.10
2022-12-12T19:58:23.439Z,43.05
2022-12-12T20:01:28.602Z,41.45
2022-12-12T20:04:30.484Z,37.17
2022-12-12T20:07:32.192Z,35.22
2022-12-12T20:10:38.808Z,33.92
2022-12-12T20:13:40.821Z,39.03
2022-12-12T20:16:43.513Z,33.53
2022-12-12T20:19:47.321Z,34.05
2022-12-12T20:25:50.402Z,34.30
2022-12-12T20:28:53.478Z,41.00
2022-12-12T20:31:55.026Z,42.67
2022-12-12T20:34:56.565Z,41.03
2022-12-12T20:37:59.348Z,36.22
2022-12-12T20:41:01.677Z,38.38
2022-12-12T20:44:05.636Z,52.70
2022-12-12T20:47:09.807Z,45.83
2022-12-12T20:50:13.527Z,43.47
2022-12-12T20:53:15.026Z,49.33
2022-12-12T20:56:19.019Z,50.42
2022-12-12T20:59:20.539Z,62.25
2022-12-12T21:02:25.031Z,51.33
2022-12-12T21:05:30.284Z,54.35
2022-12-12T21:08:31.938Z,66.00
2022-12-12T21:11:34.053Z,56.08
2022-12-12T21:14:36.905Z,61.42
2022-12-12T21:17:38.476Z,56.72
2022-12-12T21:20:44.174Z,57.10
2022-12-12T21:23:46.184Z,54.78
2022-12-12T21:26:48.516Z,56.75
2022-12-12T21:29:49.991Z,69.55
2022-12-12T21:32:51.555Z,106.78
2022-12-12T21:35:53.980Z,177.27
2022-12-12T21:38:57.381Z,129.07
2022-12-12T21:41:58.881Z,64.65
2022-12-12T21:45:00.705Z,164.73
2022-12-12T21:48:02.190Z,107.57
2022-12-12T21:51:07.007Z,208.35
2022-12-12T21:54:09.995Z,66.07
2022-12-12T21:57:12.759Z,102.10
2022-12-12T22:00:14.527Z,72.25
2022-12-12T22:03:16.051Z,58.30
2022-12-12T22:06:27.033Z,119.22
2022-12-12T22:09:28.616Z,131.23
2022-12-12T22:12:31.562Z,121.65
2022-12-12T22:15:33.006Z,75.03
2022-12-12T22:18:34.583Z,146.02
2022-12-12T22:21:36.603Z,74.55
2022-12-12T22:24:38.151Z,135.35
2022-12-12T22:27:39.700Z,83.82
2022-12-12T22:30:42.085Z,75.28
2022-12-12T22:33:44.519Z,103.57
2022-12-12T22:36:46.948Z,74.57
2022-12-12T22:39:48.511Z,139.75
2022-12-12T22:42:50.087Z,79.50
2022-12-12T22:45:51.651Z,122.70
2022-12-12T22:48:54.983Z,75.95
2022-12-12T22:51:57.876Z,68.13
2022-12-12T22:54:59.524Z,48.20
2022-12-12T22:58:01.195Z,51.63
2022-12-12T23:01:11.978Z,83.05
2022-12-12T23:04:14.166Z,68.05
2022-12-12T23:07:15.841Z,106.53
2022-12-12T23:10:17.975Z,49.55
2022-12-12T23:13:19.967Z,45.78
2022-12-12T23:16:24.752Z,39.55
2022-12-12T23:19:28.742Z,38.35
2022-12-12T23:22:30.907Z,41.53
2022-12-12T23:25:32.533Z,41.40
2022-12-12T23:28:35.272Z,33.33
2022-12-12T23:31:38.635Z,35.15
2022-12-12T23:34:40.385Z,36.30
2022-12-12T23:37:41.983Z,45.50
2022-12-12T23:40:43.893Z,38.45
2022-12-12T23:43:45.595Z,37.60
2022-12-12T23:46:47.426Z,33.78
2022-12-12T23:49:49.027Z,28.67
2022-12-12T23:52:50.640Z,31.40
2022-12-12T23:55:52.640Z,31.15
2022-12-12T23:58:55.822Z,26.13
